Time;durP1;ratioP1;P1;durP2;ratioP2;P2;SDS_P1;SDS_P2;PMS_P1;PMS_P2;Temp;Humidity;BMP_temperature;BMP_pressure;BME280_temperature;BME280_humidity;BME280_pressure;Samples;Min_cycle;Max_cycle;Signal;HPM_P1;HPM_P2
2023/12/30 00:01:53;;;;;;;1.25;0.90;;;7.00;99.90;;;;;;4993441;28;20042;-68
2023/12/30 00:04:19;;;;;;;1.30;0.90;;;6.80;99.90;;;;;;4992967;28;20046;-68
2023/12/30 00:06:45;;;;;;;2.35;0.93;;;6.90;99.90;;;;;;4993326;28;20051;-69
2023/12/30 00:09:10;;;;;;;2.17;0.95;;;6.90;99.90;;;;;;4991805;28;20050;-68
2023/12/30 00:11:36;;;;;;;1.77;1.00;;;6.90;99.90;;;;;;4993225;28;20089;-68
2023/12/30 00:14:01;;;;;;;1.95;1.10;;;7.60;99.90;;;;;;4991450;28;20113;-68
2023/12/30 00:16:28;;;;;;;0.98;0.70;;;6.90;99.90;;;;;;4993094;28;20097;-68
2023/12/30 00:18:54;;;;;;;1.05;0.90;;;6.70;99.90;;;;;;4992830;28;20041;-67
2023/12/30 00:21:20;;;;;;;2.85;1.25;;;6.70;99.90;;;;;;4992782;28;20042;-67
2023/12/30 00:23:46;;;;;;;2.03;1.13;;;6.70;99.90;;;;;;4992780;28;20130;-66
2023/12/30 00:26:25;;;;;;;2.35;1.23;;;6.80;99.90;;;;;;4992053;28;20118;-68
2023/12/30 00:28:52;;;;;;;1.55;0.90;;;6.60;99.90;;;;;;4991635;28;20050;-70
2023/12/30 00:31:23;;;;;;;2.72;1.27;;;6.60;99.90;;;;;;4991447;28;20050;-68
2023/12/30 00:33:49;;;;;;;0.57;0.57;;;6.50;99.90;;;;;;4992932;28;20045;-68
2023/12/30 00:36:15;;;;;;;1.95;1.23;;;6.50;99.90;;;;;;4992611;28;20133;-68
2023/12/30 00:38:41;;;;;;;1.95;1.00;;;7.40;99.90;;;;;;4992573;28;20129;-68
2023/12/30 00:41:07;;;;;;;2.90;0.93;;;6.40;99.90;;;;;;4991306;28;20049;-68
2023/12/30 00:43:32;;;;;;;1.08;0.98;;;6.40;99.90;;;;;;4992886;28;20470;-68
2023/12/30 00:45:58;;;;;;;1.67;0.95;;;6.40;99.90;;;;;;4991300;28;20039;-68
2023/12/30 00:48:24;;;;;;;2.17;1.20;;;6.60;99.90;;;;;;4992473;28;20494;-68
2023/12/30 00:50:49;;;;;;;0.80;0.80;;;6.60;99.90;;;;;;4991580;28;20046;-68
2023/12/30 00:53:15;;;;;;;1.60;0.85;;;6.30;99.90;;;;;;4992455;28;20134;-68
2023/12/30 00:55:41;;;;;;;1.45;0.90;;;7.00;99.90;;;;;;4992827;28;20042;-69
2023/12/30 00:58:06;;;;;;;0.80;0.80;;;6.30;99.90;;;;;;4991052;28;20049;-68
2023/12/30 01:00:32;;;;;;;1.52;0.90;;;6.30;99.90;;;;;;4992475;28;20527;-68
2023/12/30 01:02:58;;;;;;;0.98;0.88;;;6.20;99.90;;;;;;4992585;28;20479;-68
2023/12/30 01:05:23;;;;;;;0.80;0.80;;;6.90;99.90;;;;;;4991173;28;20042;-69
2023/12/30 01:07:49;;;;;;;1.63;0.85;;;6.20;99.90;;;;;;4991119;28;20557;-68
2023/12/30 01:10:17;;;;;;;0.70;0.70;;;6.20;99.90;;;;;;4992366;28;20049;-68
2023/12/30 01:12:43;;;;;;;2.50;1.13;;;6.20;99.90;;;;;;4991190;28;20089;-68
2023/12/30 01:15:09;;;;;;;2.20;1.13;;;6.20;99.90;;;;;;4992606;28;20444;-68
2023/12/30 01:17:35;;;;;;;2.17;1.10;;;6.20;99.90;;;;;;4992382;28;20042;-68
2023/12/30 01:20:01;;;;;;;2.15;1.00;;;6.20;99.90;;;;;;4992575;28;20045;-68
2023/12/30 01:22:27;;;;;;;1.45;0.77;;;6.70;99.90;;;;;;4992526;28;20461;-68
2023/12/30 01:24:53;;;;;;;1.52;1.00;;;6.40;99.90;;;;;;4992517;28;20070;-68
2023/12/30 01:27:18;;;;;;;2.08;1.20;;;6.20;99.90;;;;;;4992456;28;20035;-68
2023/12/30 01:29:44;;;;;;;1.35;0.90;;;6.20;99.90;;;;;;4991244;28;20534;-67
2023/12/30 01:32:10;;;;;;;0.73;0.70;;;6.20;99.90;;;;;;4992424;28;20066;-67
2023/12/30 01:34:35;;;;;;;1.50;0.90;;;6.40;99.90;;;;;;4992190;28;20038;-67
2023/12/30 01:37:01;;;;;;;1.40;0.70;;;6.20;99.90;;;;;;4992432;28;20078;-67
2023/12/30 01:39:27;;;;;;;0.93;0.88;;;6.20;99.90;;;;;;4994075;28;20098;-68
2023/12/30 01:41:52;;;;;;;0.73;0.70;;;6.20;99.90;;;;;;4995951;28;20092;-68
2023/12/30 01:44:18;;;;;;;0.93;0.82;;;6.10;99.90;;;;;;4994259;28;20038;-68
2023/12/30 01:46:44;;;;;;;2.50;0.95;;;6.40;99.90;;;;;;4995878;28;20041;-68
2023/12/30 01:49:11;;;;;;;1.45;0.90;;;6.10;99.90;;;;;;4994405;28;20042;-68
2023/12/30 01:51:37;;;;;;;2.00;1.17;;;6.20;99.90;;;;;;4995754;28;20042;-69
2023/12/30 01:54:04;;;;;;;0.70;0.70;;;6.30;99.90;;;;;;4995761;28;20474;-68
2023/12/30 01:56:31;;;;;;;0.85;0.63;;;6.00;99.90;;;;;;4995743;28;20039;-68
2023/12/30 01:58:59;;;;;;;1.13;0.73;;;6.50;99.90;;;;;;4995540;28;20081;-68
2023/12/30 02:01:28;;;;;;;1.48;0.75;;;6.00;99.90;;;;;;4995263;28;20061;-68
2023/12/30 02:03:54;;;;;;;3.45;1.13;;;6.10;99.90;;;;;;4995542;28;20043;-68
2023/12/30 02:06:20;;;;;;;1.02;0.93;;;6.10;99.90;;;;;;4994253;28;20038;-69
2023/12/30 02:08:47;;;;;;;0.70;0.70;;;6.00;99.90;;;;;;4995510;28;20046;-69
2023/12/30 02:11:14;;;;;;;2.25;0.73;;;6.10;99.90;;;;;;4995383;28;20038;-68
2023/12/30 02:13:44;;;;;;;1.08;0.70;;;6.10;99.90;;;;;;4995035;28;20062;-68
2023/12/30 02:16:10;;;;;;;2.38;1.10;;;6.00;99.90;;;;;;4995356;28;20486;-69
2023/12/30 02:18:37;;;;;;;1.35;0.95;;;6.20;99.90;;;;;;4993701;28;20053;-69
2023/12/30 02:21:03;;;;;;;1.20;0.75;;;6.10;99.90;;;;;;4995287;28;20406;-68
2023/12/30 02:23:29;;;;;;;1.05;0.70;;;6.10;99.90;;;;;;4995224;28;20035;-68
2023/12/30 02:25:54;;;;;;;1.98;1.13;;;6.10;99.90;;;;;;4993853;28;20117;-68
2023/12/30 02:28:20;;;;;;;1.85;1.15;;;6.10;99.90;;;;;;4994769;28;20133;-69
2023/12/30 02:30:45;;;;;;;1.88;1.02;;;6.20;99.90;;;;;;4995051;28;20125;-69
2023/12/30 02:33:11;;;;;;;2.10;1.20;;;6.20;99.90;;;;;;4995018;28;20121;-68
2023/12/30 02:35:37;;;;;;;0.98;0.80;;;6.20;99.90;;;;;;4993446;28;20514;-68
2023/12/30 02:38:03;;;;;;;1.52;0.98;;;6.90;99.90;;;;;;4994797;28;20482;-69
2023/12/30 02:40:28;;;;;;;1.15;0.88;;;6.20;99.90;;;;;;4994977;28;20049;-67
2023/12/30 02:42:54;;;;;;;1.17;0.73;;;6.30;99.90;;;;;;4993314;28;20053;-67
2023/12/30 02:45:19;;;;;;;1.45;0.80;;;6.30;99.90;;;;;;4993294;28;20047;-67
2023/12/30 02:47:45;;;;;;;0.70;0.60;;;6.30;99.90;;;;;;4994514;28;20034;-67
2023/12/30 02:50:11;;;;;;;3.38;1.05;;;6.30;99.90;;;;;;4993842;28;20093;-67
2023/12/30 02:52:36;;;;;;;0.93;0.77;;;6.30;99.90;;;;;;4994595;28;20040;-67
2023/12/30 02:55:04;;;;;;;0.80;0.68;;;6.20;99.90;;;;;;4994631;28;20042;-67
2023/12/30 02:57:30;;;;;;;1.88;0.93;;;6.30;99.90;;;;;;4993059;28;20039;-67
2023/12/30 02:59:55;;;;;;;2.42;1.25;;;6.40;99.90;;;;;;4992886;28;20501;-67
2023/12/30 03:02:21;;;;;;;2.70;1.05;;;6.20;99.90;;;;;;4994522;28;20046;-67
2023/12/30 03:04:47;;;;;;;0.88;0.88;;;6.20;99.90;;;;;;4992931;28;20042;-67
2023/12/30 03:07:12;;;;;;;1.98;1.40;;;6.30;99.90;;;;;;4992786;28;20565;-67
2023/12/30 03:09:38;;;;;;;1.65;1.00;;;6.30;99.90;;;;;;4994002;28;20089;-67
2023/12/30 03:12:04;;;;;;;0.65;0.65;;;6.30;99.90;;;;;;4993863;28;20041;-67
2023/12/30 03:14:30;;;;;;;2.78;1.35;;;6.40;99.90;;;;;;4994257;28;20060;-67
2023/12/30 03:16:57;;;;;;;2.55;1.10;;;6.40;99.90;;;;;;4992725;28;20046;-67
2023/12/30 03:19:23;;;;;;;1.45;1.08;;;6.40;99.90;;;;;;4993811;28;20117;-67
2023/12/30 03:21:49;;;;;;;1.15;0.70;;;6.60;99.90;;;;;;4994087;28;20121;-67
2023/12/30 03:24:14;;;;;;;0.70;0.70;;;6.40;99.90;;;;;;4994083;28;20154;-67
2023/12/30 03:26:40;;;;;;;2.15;1.00;;;6.30;99.90;;;;;;4994005;28;20510;-67
2023/12/30 03:29:06;;;;;;;1.83;1.00;;;6.40;99.90;;;;;;4992385;28;20080;-71
2023/12/30 03:31:31;;;;;;;2.15;0.93;;;6.30;99.90;;;;;;4992381;28;20494;-67
2023/12/30 03:33:57;;;;;;;0.85;0.80;;;6.30;99.90;;;;;;4993861;28;20050;-67
2023/12/30 03:36:23;;;;;;;3.80;1.35;;;6.30;99.90;;;;;;4993831;28;20402;-67
2023/12/30 03:38:51;;;;;;;2.13;1.48;;;6.80;99.90;;;;;;4993440;28;20046;-67
2023/12/30 03:41:17;;;;;;;1.75;1.05;;;6.30;99.90;;;;;;4993710;28;20046;-67
2023/12/30 03:43:43;;;;;;;3.45;1.38;;;7.10;99.90;;;;;;4993725;28;20042;-67
2023/12/30 03:46:09;;;;;;;1.05;0.90;;;6.70;99.90;;;;;;4993606;28;20061;-67
2023/12/30 03:48:36;;;;;;;2.50;1.10;;;6.20;99.90;;;;;;4993270;28;20104;-67
2023/12/30 03:51:02;;;;;;;2.60;1.25;;;6.20;99.90;;;;;;4992359;28;20051;-69
2023/12/30 03:53:27;;;;;;;2.05;0.95;;;6.10;99.90;;;;;;4975827;28;20501;-69
2023/12/30 03:55:53;;;;;;;1.00;0.80;;;6.20;99.90;;;;;;4993191;28;20045;-68
2023/12/30 03:58:19;;;;;;;1.55;0.90;;;6.10;99.90;;;;;;4993042;28;20042;-68
2023/12/30 04:00:45;;;;;;;1.20;0.90;;;6.10;99.90;;;;;;4991849;28;20053;-67
2023/12/30 04:03:10;;;;;;;1.98;1.17;;;7.00;99.90;;;;;;4993387;28;20084;-67
2023/12/30 04:05:36;;;;;;;1.17;0.82;;;6.00;99.90;;;;;;4993055;28;20049;-67
2023/12/30 04:08:02;;;;;;;2.70;1.10;;;6.10;99.90;;;;;;4991767;28;20092;-67
2023/12/30 04:10:27;;;;;;;2.05;1.00;;;6.00;99.90;;;;;;4991991;28;20042;-67
2023/12/30 04:12:53;;;;;;;2.38;1.33;;;6.00;99.90;;;;;;4991592;28;20062;-67
2023/12/30 04:15:21;;;;;;;1.77;1.00;;;6.10;99.90;;;;;;4991611;28;20057;-67
2023/12/30 04:17:47;;;;;;;1.00;0.90;;;6.00;99.90;;;;;;4992980;28;20053;-67
2023/12/30 04:20:13;;;;;;;1.00;0.90;;;6.00;99.90;;;;;;4993133;28;20046;-67
2023/12/30 04:22:39;;;;;;;1.67;1.25;;;6.00;99.90;;;;;;4993052;28;20386;-67
2023/12/30 04:25:05;;;;;;;1.98;1.15;;;6.00;99.90;;;;;;4992786;28;20050;-67
2023/12/30 04:27:31;;;;;;;3.63;1.13;;;6.00;99.90;;;;;;4992748;28;20414;-67
2023/12/30 04:29:57;;;;;;;2.22;1.00;;;6.10;99.90;;;;;;4992713;28;20042;-67
2023/12/30 04:32:22;;;;;;;1.38;1.00;;;6.00;99.90;;;;;;4992782;28;20046;-67
2023/12/30 04:34:49;;;;;;;1.92;1.15;;;6.30;99.90;;;;;;4992941;28;20095;-67
2023/12/30 04:37:14;;;;;;;4.82;1.38;;;5.90;99.90;;;;;;4993234;28;20626;-67
2023/12/30 04:39:40;;;;;;;3.22;1.73;;;5.90;99.90;;;;;;4992842;28;20053;-67
2023/12/30 04:42:06;;;;;;;4.90;1.00;;;5.90;99.90;;;;;;4992888;28;20057;-67
2023/12/30 04:44:32;;;;;;;2.00;1.23;;;5.80;99.90;;;;;;4991333;28;20074;-67
2023/12/30 04:46:58;;;;;;;1.20;1.02;;;5.80;99.90;;;;;;4991299;28;20532;-67
2023/12/30 04:49:23;;;;;;;3.05;1.42;;;6.10;99.90;;;;;;4992827;28;20110;-67
2023/12/30 04:51:49;;;;;;;1.85;1.25;;;5.80;99.90;;;;;;4992528;28;20089;-67
2023/12/30 04:54:14;;;;;;;1.55;1.30;;;5.70;99.90;;;;;;4991295;28;20046;-67
2023/12/30 04:56:40;;;;;;;1.65;1.02;;;5.80;99.90;;;;;;4992724;28;20042;-67
2023/12/30 04:59:08;;;;;;;2.78;1.00;;;5.80;99.90;;;;;;4992584;28;20041;-67
2023/12/30 05:01:33;;;;;;;2.42;1.30;;;6.00;99.90;;;;;;4992840;28;20069;-68
2023/12/30 05:03:59;;;;;;;1.88;1.23;;;6.20;99.90;;;;;;4992729;28;20499;-68
2023/12/30 05:06:25;;;;;;;2.00;1.20;;;5.80;99.90;;;;;;4992330;28;20527;-68
2023/12/30 05:08:52;;;;;;;1.65;1.13;;;5.80;99.90;;;;;;4992581;28;20042;-69
2023/12/30 05:11:19;;;;;;;1.70;1.00;;;5.80;99.90;;;;;;4991418;28;20092;-67
2023/12/30 05:13:45;;;;;;;1.58;1.13;;;5.70;99.90;;;;;;4994383;28;20050;-67
2023/12/30 05:16:11;;;;;;;1.98;1.00;;;5.80;99.90;;;;;;4996488;28;20081;-71
2023/12/30 05:18:37;;;;;;;1.65;0.82;;;5.70;99.90;;;;;;4996277;28;20136;-67
2023/12/30 05:21:03;;;;;;;1.77;1.05;;;6.00;99.90;;;;;;4996383;28;20038;-68
2023/12/30 05:23:31;;;;;;;2.35;1.15;;;5.70;99.90;;;;;;4996083;28;20053;-69
2023/12/30 05:25:57;;;;;;;2.25;1.10;;;5.70;99.90;;;;;;4996288;28;20416;-68
2023/12/30 05:28:23;;;;;;;3.08;1.30;;;5.70;99.90;;;;;;4994900;28;20041;-70
2023/12/30 05:30:48;;;;;;;1.75;1.05;;;5.70;99.90;;;;;;4995919;28;20497;-68
2023/12/30 05:33:14;;;;;;;1.67;0.95;;;5.70;99.90;;;;;;4995855;28;20234;-67
2023/12/30 05:35:40;;;;;;;2.92;1.35;;;5.70;99.90;;;;;;4996049;28;20034;-67
2023/12/30 05:38:06;;;;;;;1.45;1.00;;;5.70;99.90;;;;;;4995648;28;20050;-67
2023/12/30 05:40:31;;;;;;;2.75;1.33;;;5.70;99.90;;;;;;4978296;28;20122;-67
2023/12/30 05:42:57;;;;;;;1.30;0.98;;;6.10;99.90;;;;;;4978214;28;20074;-67
2023/12/30 05:45:22;;;;;;;1.80;1.10;;;5.70;99.90;;;;;;4995614;28;20038;-67
2023/12/30 05:47:48;;;;;;;3.55;1.13;;;5.80;99.90;;;;;;4995855;28;20034;-67
2023/12/30 05:50:14;;;;;;;1.38;1.00;;;5.70;99.90;;;;;;4995798;28;20038;-67
2023/12/30 05:52:40;;;;;;;2.22;1.02;;;5.70;99.90;;;;;;4995483;28;20467;-69
2023/12/30 05:55:06;;;;;;;2.55;1.40;;;5.80;99.90;;;;;;4995726;28;20053;-67
2023/12/30 05:57:32;;;;;;;1.75;1.10;;;5.70;99.90;;;;;;4995681;28;20030;-67
2023/12/30 05:59:57;;;;;;;2.08;1.10;;;5.80;99.90;;;;;;4995285;28;20035;-67
2023/12/30 06:02:23;;;;;;;2.33;1.38;;;5.80;99.90;;;;;;4994078;28;20042;-67
2023/12/30 06:04:49;;;;;;;2.40;0.90;;;6.20;99.90;;;;;;4994115;28;20038;-67
2023/12/30 06:07:15;;;;;;;1.73;1.23;;;5.80;99.90;;;;;;4993911;28;20050;-67
2023/12/30 06:09:44;;;;;;;1.98;1.20;;;5.80;99.90;;;;;;4995250;28;20042;-67
2023/12/30 06:12:10;;;;;;;1.88;1.05;;;6.30;99.90;;;;;;4995467;28;20058;-68
2023/12/30 06:14:36;;;;;;;1.20;1.10;;;5.70;99.90;;;;;;4995105;28;20065;-68
2023/12/30 06:17:02;;;;;;;1.70;1.40;;;5.80;99.90;;;;;;4995423;28;20042;-68
2023/12/30 06:19:28;;;;;;;1.75;1.33;;;5.80;99.90;;;;;;4995234;28;20038;-68
2023/12/30 06:21:54;;;;;;;1.85;1.10;;;5.80;99.90;;;;;;4995205;28;20042;-69
2023/12/30 06:24:19;;;;;;;2.90;1.50;;;5.80;99.90;;;;;;4995140;28;20113;-68
2023/12/30 06:26:45;;;;;;;2.47;1.25;;;5.70;99.90;;;;;;4995110;28;20034;-68
2023/12/30 06:29:11;;;;;;;2.25;1.17;;;5.70;99.90;;;;;;4995107;28;20053;-68
2023/12/30 06:31:41;;;;;;;1.63;1.20;;;5.70;99.90;;;;;;4995096;28;20034;-68
2023/12/30 06:34:06;;;;;;;1.15;0.90;;;5.70;99.90;;;;;;4993502;28;20052;-68
2023/12/30 06:36:32;;;;;;;1.63;1.20;;;5.70;99.90;;;;;;4994977;28;20042;-69
2023/12/30 06:38:58;;;;;;;1.60;0.88;;;6.40;99.90;;;;;;4977144;28;20050;-69
2023/12/30 06:41:24;;;;;;;1.15;0.88;;;5.80;99.90;;;;;;4994610;28;20129;-68
2023/12/30 06:43:49;;;;;;;2.22;1.10;;;5.80;99.90;;;;;;4993404;28;20042;-67
2023/12/30 06:46:19;;;;;;;2.03;1.10;;;6.30;99.90;;;;;;4993319;28;20105;-67
2023/12/30 06:48:46;;;;;;;2.20;1.23;;;5.70;99.90;;;;;;4993287;28;20062;-66
2023/12/30 06:51:12;;;;;;;1.77;1.27;;;5.80;99.90;;;;;;4994825;28;20038;-67
2023/12/30 06:53:37;;;;;;;1.77;1.20;;;5.70;99.90;;;;;;4994653;28;20034;-67
2023/12/30 06:56:04;;;;;;;1.83;1.00;;;5.80;99.90;;;;;;4994639;28;20100;-67
2023/12/30 06:58:30;;;;;;;1.73;1.08;;;5.80;99.90;;;;;;4994541;28;20038;-67
2023/12/30 07:00:56;;;;;;;1.63;1.00;;;5.80;99.90;;;;;;4994517;28;20069;-67
2023/12/30 07:03:22;;;;;;;3.35;1.20;;;5.80;99.90;;;;;;4994556;28;20038;-67
2023/12/30 07:05:48;;;;;;;3.50;1.10;;;5.80;99.90;;;;;;4994447;28;20488;-68
2023/12/30 07:08:14;;;;;;;1.27;0.73;;;5.80;99.90;;;;;;4994349;28;20113;-67
2023/12/30 07:10:39;;;;;;;2.30;1.00;;;5.80;99.90;;;;;;4994070;28;20482;-67
2023/12/30 07:13:08;;;;;;;2.65;1.38;;;5.80;99.90;;;;;;4994035;28;20065;-67
2023/12/30 07:15:34;;;;;;;3.10;1.55;;;5.70;99.90;;;;;;4992674;28;20200;-67
2023/12/30 07:18:00;;;;;;;1.02;0.88;;;5.70;99.90;;;;;;4992508;28;20125;-67
2023/12/30 07:20:26;;;;;;;1.80;1.20;;;5.80;99.90;;;;;;4993895;28;20042;-67
2023/12/30 07:22:53;;;;;;;1.17;1.08;;;6.20;99.90;;;;;;4994310;28;20042;-69
2023/12/30 07:25:18;;;;;;;1.98;1.15;;;5.80;99.90;;;;;;4994081;28;20043;-69
2023/12/30 07:27:44;;;;;;;2.35;1.08;;;5.70;99.90;;;;;;4994062;28;20146;-69
2023/12/30 07:30:10;;;;;;;1.45;1.02;;;5.70;99.90;;;;;;4993711;28;20092;-69
2023/12/30 07:32:37;;;;;;;3.75;1.58;;;5.70;99.90;;;;;;4993916;28;20048;-69
2023/12/30 07:35:05;;;;;;;2.03;0.98;;;6.40;99.90;;;;;;4993739;28;20042;-69
2023/12/30 07:37:32;;;;;;;1.95;1.10;;;5.80;99.90;;;;;;4993535;28;20093;-68
2023/12/30 07:39:58;;;;;;;1.92;1.30;;;5.80;99.90;;;;;;4993663;28;20043;-68
2023/12/30 07:42:24;;;;;;;1.50;1.20;;;5.90;99.90;;;;;;4992475;28;20042;-69
2023/12/30 07:44:52;;;;;;;2.65;1.13;;;5.80;99.90;;;;;;4993745;28;20045;-69
2023/12/30 07:47:18;;;;;;;2.67;1.25;;;6.10;99.90;;;;;;4992401;28;20038;-69
2023/12/30 07:49:43;;;;;;;2.38;1.20;;;6.10;99.90;;;;;;4993666;28;20092;-69
2023/12/30 07:52:09;;;;;;;2.78;0.70;;;5.80;99.90;;;;;;4993267;28;20125;-69
2023/12/30 07:54:34;;;;;;;1.95;1.40;;;5.80;99.90;;;;;;4993595;28;20129;-69
2023/12/30 07:57:00;;;;;;;2.35;1.20;;;5.70;99.90;;;;;;4993240;28;20078;-69
2023/12/30 07:59:26;;;;;;;2.55;1.63;;;5.80;99.90;;;;;;4991876;28;20039;-69
2023/12/30 08:01:51;;;;;;;2.20;1.20;;;5.70;99.90;;;;;;4993453;28;20398;-69
2023/12/30 08:04:17;;;;;;;2.25;1.50;;;5.80;99.90;;;;;;4993345;28;20390;-69
2023/12/30 08:06:43;;;;;;;2.10;1.25;;;5.80;99.90;;;;;;4993322;28;20066;-70
2023/12/30 08:09:11;;;;;;;2.35;1.17;;;6.40;99.90;;;;;;4993304;28;20073;-69
2023/12/30 08:11:36;;;;;;;2.58;0.95;;;5.80;99.90;;;;;;4993276;28;20038;-68
2023/12/30 08:14:02;;;;;;;1.98;1.10;;;6.50;99.90;;;;;;4992903;28;20050;-69
2023/12/30 08:16:28;;;;;;;1.83;1.10;;;5.80;99.90;;;;;;5007942;28;20062;-69
2023/12/30 08:18:54;;;;;;;1.60;1.20;;;6.20;99.90;;;;;;4991648;28;20046;-69
2023/12/30 08:21:20;;;;;;;2.85;1.58;;;5.70;99.90;;;;;;4993007;28;20054;-69
2023/12/30 08:23:45;;;;;;;1.20;1.00;;;5.80;99.90;;;;;;4992681;28;20128;-68
2023/12/30 08:26:11;;;;;;;1.17;1.08;;;5.70;99.90;;;;;;4992746;28;20098;-69
2023/12/30 08:28:36;;;;;;;2.05;1.35;;;5.70;99.90;;;;;;4991755;28;20042;-69
2023/12/30 08:31:02;;;;;;;1.77;0.95;;;6.20;99.90;;;;;;4992978;28;20513;-69
2023/12/30 08:33:28;;;;;;;3.42;1.13;;;5.80;99.90;;;;;;4991893;28;20031;-67
2023/12/30 08:35:54;;;;;;;2.67;1.30;;;5.70;99.90;;;;;;4992957;28;20042;-67
2023/12/30 08:38:19;;;;;;;2.20;1.27;;;5.70;99.90;;;;;;4992921;28;20034;-67
2023/12/30 08:40:45;;;;;;;2.50;1.20;;;5.70;99.90;;;;;;4992896;28;20093;-67
2023/12/30 08:43:12;;;;;;;1.95;0.98;;;5.70;99.90;;;;;;4993197;28;20038;-67
2023/12/30 08:45:38;;;;;;;4.38;1.30;;;5.70;99.90;;;;;;4992533;28;20117;-67
2023/12/30 08:48:04;;;;;;;1.40;1.10;;;5.70;99.90;;;;;;4993971;28;20051;-68
2023/12/30 08:50:33;;;;;;;1.90;0.93;;;5.70;99.90;;;;;;4996935;28;20394;-67
2023/12/30 08:52:59;;;;;;;1.80;0.98;;;5.90;99.90;;;;;;4996573;28;20034;-67
2023/12/30 08:55:24;;;;;;;1.92;1.15;;;5.60;99.90;;;;;;4996812;28;20121;-67
2023/12/30 08:57:50;;;;;;;2.55;1.33;;;6.40;99.90;;;;;;4996547;28;20042;-66
2023/12/30 09:00:17;;;;;;;4.60;1.30;;;5.70;99.90;;;;;;4996630;28;20046;-67
2023/12/30 09:02:46;;;;;;;1.90;1.00;;;5.70;99.90;;;;;;4996725;28;20053;-67
2023/12/30 09:05:17;;;;;;;1.77;1.05;;;5.80;99.90;;;;;;4995327;28;20050;-67
2023/12/30 09:07:43;;;;;;;2.05;0.98;;;5.70;99.90;;;;;;4995145;28;20042;-67
2023/12/30 09:10:09;;;;;;;2.10;1.20;;;5.60;99.90;;;;;;4996567;28;20100;-67
2023/12/30 09:12:35;;;;;;;1.58;1.10;;;5.60;99.90;;;;;;4996353;28;20391;-67
2023/12/30 09:15:00;;;;;;;2.22;1.23;;;5.60;99.90;;;;;;4996182;28;20054;-67
2023/12/30 09:17:26;;;;;;;0.73;0.73;;;5.70;99.90;;;;;;4996074;28;20043;-67
2023/12/30 09:19:51;;;;;;;1.35;1.25;;;6.30;99.90;;;;;;4996349;28;20038;-66
2023/12/30 09:22:17;;;;;;;2.45;1.10;;;5.80;99.90;;;;;;4994803;28;20131;-66
2023/12/30 09:24:45;;;;;;;1.42;0.90;;;5.70;99.90;;;;;;4996311;28;20481;-66
2023/12/30 09:27:11;;;;;;;4.00;1.40;;;5.80;99.90;;;;;;4996330;28;20042;-66
2023/12/30 09:29:36;;;;;;;0.93;0.90;;;5.90;99.90;;;;;;4996188;28;20053;-66
2023/12/30 09:32:02;;;;;;;2.78;1.40;;;6.00;99.90;;;;;;4994635;28;20042;-67
2023/12/30 09:34:29;;;;;;;2.17;1.23;;;6.00;99.90;;;;;;4996141;28;20038;-68
2023/12/30 09:36:54;;;;;;;1.67;1.30;;;6.10;99.90;;;;;;4996127;28;20375;-66
2023/12/30 09:39:20;;;;;;;1.67;1.10;;;6.20;99.90;;;;;;4994391;28;20097;-66
2023/12/30 09:41:45;;;;;;;2.83;1.42;;;6.50;99.90;;;;;;4995949;28;20546;-67
2023/12/30 09:44:13;;;;;;;2.17;1.15;;;6.20;99.90;;;;;;4996023;28;20076;-67
2023/12/30 09:46:40;;;;;;;1.00;0.90;;;6.20;99.90;;;;;;4996059;28;20038;-69
2023/12/30 09:49:06;;;;;;;1.23;1.13;;;6.60;99.90;;;;;;4994186;28;20085;-69
2023/12/30 09:51:33;;;;;;;1.52;0.98;;;6.40;99.90;;;;;;4994561;28;20034;-68
2023/12/30 09:53:59;;;;;;;2.33;1.20;;;6.20;99.90;;;;;;4995767;28;20140;-68
2023/12/30 09:56:26;;;;;;;2.42;1.35;;;6.20;99.90;;;;;;4995562;28;20046;-67
2023/12/30 09:58:53;;;;;;;3.17;1.27;;;6.30;99.90;;;;;;4995225;28;20039;-67
2023/12/30 10:01:20;;;;;;;2.03;1.08;;;6.30;99.90;;;;;;4995625;28;20074;-67
2023/12/30 10:03:47;;;;;;;2.05;1.10;;;6.40;99.90;;;;;;4995531;28;20038;-67
2023/12/30 10:06:17;;;;;;;2.00;1.15;;;6.60;99.90;;;;;;4995369;28;20042;-69
2023/12/30 10:08:44;;;;;;;1.23;1.05;;;7.30;99.90;;;;;;4995294;28;20080;-69
2023/12/30 10:11:10;;;;;;;2.65;1.55;;;6.40;99.90;;;;;;4995482;28;20034;-69
2023/12/30 10:13:36;;;;;;;3.30;1.13;;;6.50;99.90;;;;;;4995066;28;20422;-69
2023/12/30 10:16:05;;;;;;;2.15;1.02;;;6.80;99.90;;;;;;4993887;28;20057;-67
2023/12/30 10:18:37;;;;;;;1.13;0.88;;;6.50;99.90;;;;;;4993699;28;20053;-67
2023/12/30 10:21:04;;;;;;;1.17;0.95;;;6.60;99.90;;;;;;4995302;28;20034;-67
2023/12/30 10:23:31;;;;;;;3.40;1.42;;;6.60;99.90;;;;;;4993706;28;20093;-67
2023/12/30 10:25:58;;;;;;;1.10;1.00;;;6.60;99.90;;;;;;4993679;28;20414;-67
2023/12/30 10:28:23;;;;;;;1.33;1.10;;;6.60;99.90;;;;;;4995167;28;20410;-67
2023/12/30 10:31:11;;;;;;;1.67;1.10;;;6.70;99.90;;;;;;4995154;28;20038;-67
2023/12/30 10:33:37;;;;;;;2.03;1.10;;;6.70;99.90;;;;;;4995059;28;20120;-67
2023/12/30 10:36:09;;;;;;;1.40;1.10;;;6.70;99.90;;;;;;4994740;28;20556;-67
2023/12/30 10:38:35;;;;;;;2.55;1.27;;;6.80;99.90;;;;;;4994870;28;20039;-67
2023/12/30 10:41:01;;;;;;;1.20;0.82;;;6.80;99.90;;;;;;4995026;28;20038;-67
2023/12/30 10:43:27;;;;;;;2.45;1.10;;;6.80;99.90;;;;;;4994865;28;20492;-67
2023/12/30 10:46:00;;;;;;;1.63;0.80;;;6.90;99.90;;;;;;4994623;28;20094;-67
2023/12/30 10:48:31;;;;;;;2.20;1.13;;;6.90;99.90;;;;;;4993515;28;20053;-69
2023/12/30 10:50:59;;;;;;;2.47;1.13;;;6.90;99.90;;;;;;4994753;28;20442;-69
2023/12/30 10:53:44;;;;;;;1.58;0.90;;;7.00;99.90;;;;;;4994688;28;20057;-69
2023/12/30 10:56:11;;;;;;;1.70;0.85;;;7.00;99.90;;;;;;4994403;28;20039;-70
2023/12/30 10:58:40;;;;;;;1.60;1.00;;;7.00;99.90;;;;;;4994511;28;20042;-69
2023/12/30 11:01:05;;;;;;;1.48;1.00;;;7.00;99.90;;;;;;4994569;28;20523;-69
2023/12/30 11:03:33;;;;;;;1.80;1.30;;;7.10;99.90;;;;;;4994286;28;20129;-69
2023/12/30 11:06:41;;;;;;;1.85;1.05;;;7.20;99.90;;;;;;4994485;28;20423;-69
2023/12/30 11:09:09;;;;;;;2.30;1.05;;;7.20;99.90;;;;;;4992778;28;20053;-69
2023/12/30 11:11:39;;;;;;;1.10;1.00;;;7.20;99.90;;;;;;4993486;28;20876;-69
2023/12/30 11:14:12;;;;;;;0.82;0.80;;;7.30;99.90;;;;;;4992641;28;20065;-69
2023/12/30 11:16:37;;;;;;;2.95;1.35;;;7.30;99.90;;;;;;4994002;28;20038;-69
2023/12/30 11:19:04;;;;;;;1.42;1.27;;;7.40;99.90;;;;;;4993947;28;20070;-68
2023/12/30 11:21:38;;;;;;;1.67;1.05;;;7.40;99.90;;;;;;4993840;28;20092;-67
2023/12/30 11:24:07;;;;;;;2.55;1.38;;;7.50;99.90;;;;;;4993855;28;20046;-68
2023/12/30 11:26:34;;;;;;;0.90;0.88;;;7.40;99.90;;;;;;4994064;28;20043;-68
2023/12/30 11:29:03;;;;;;;2.95;1.50;;;7.40;99.90;;;;;;4993931;28;20057;-67
2023/12/30 11:31:34;;;;;;;1.83;1.38;;;7.50;99.90;;;;;;4994020;28;20441;-67
2023/12/30 11:34:00;;;;;;;3.30;1.42;;;7.60;99.90;;;;;;4994169;28;20174;-69
2023/12/30 11:36:27;;;;;;;3.25;1.92;;;7.70;99.90;;;;;;4993852;28;20469;-68
2023/12/30 11:38:58;;;;;;;1.67;1.20;;;7.80;99.90;;;;;;4993442;28;20038;-68
2023/12/30 11:41:28;;;;;;;2.67;1.40;;;7.80;99.90;;;;;;4992281;28;20090;-69
2023/12/30 11:43:56;;;;;;;2.33;1.30;;;7.90;99.90;;;;;;4993762;28;20549;-69
2023/12/30 11:46:21;;;;;;;2.20;1.30;;;8.00;99.90;;;;;;4993297;28;20050;-69
2023/12/30 11:48:47;;;;;;;3.38;1.35;;;8.00;99.90;;;;;;4993628;28;20034;-68
2023/12/30 11:51:23;;;;;;;2.60;1.10;;;8.70;99.90;;;;;;4993606;28;20108;-68
2023/12/30 11:53:49;;;;;;;3.65;1.73;;;8.20;99.90;;;;;;4993544;28;20048;-68
2023/12/30 11:56:16;;;;;;;2.25;1.45;;;8.30;99.90;;;;;;4992190;28;20050;-68
2023/12/30 11:58:42;;;;;;;1.58;1.20;;;8.30;99.90;;;;;;4993217;28;20101;-68
2023/12/30 12:01:10;;;;;;;2.83;1.50;;;8.20;99.90;;;;;;4993468;28;20050;-69
2023/12/30 12:03:36;;;;;;;2.83;1.52;;;8.40;99.90;;;;;;4993441;28;20418;-68
2023/12/30 12:06:02;;;;;;;1.90;1.10;;;8.10;99.90;;;;;;4993334;28;20053;-68
2023/12/30 12:08:28;;;;;;;3.08;1.25;;;8.00;99.90;;;;;;4993283;28;20038;-68
2023/12/30 12:10:55;;;;;;;2.08;1.42;;;8.00;99.90;;;;;;4991722;28;20042;-68
2023/12/30 12:13:25;;;;;;;1.48;1.13;;;8.10;99.90;;;;;;4991676;28;20112;-68
2023/12/30 12:15:52;;;;;;;2.35;1.40;;;7.90;99.90;;;;;;4993013;28;20050;-69
2023/12/30 12:18:19;;;;;;;2.58;1.17;;;7.90;99.90;;;;;;4991527;28;20054;-68
2023/12/30 12:20:45;;;;;;;1.83;1.17;;;7.90;99.90;;;;;;4993266;28;20153;-68
2023/12/30 12:23:16;;;;;;;1.77;1.17;;;7.90;99.90;;;;;;4993013;28;20049;-68
2023/12/30 12:25:43;;;;;;;2.20;1.30;;;8.00;99.90;;;;;;4992869;28;20042;-69
2023/12/30 12:28:10;;;;;;;1.08;0.90;;;8.00;99.90;;;;;;4991656;28;20046;-68
2023/12/30 12:30:36;;;;;;;2.28;1.50;;;8.10;99.90;;;;;;4992933;28;20479;-68
2023/12/30 12:33:02;;;;;;;1.98;1.30;;;8.10;99.90;;;;;;4991699;28;20042;-68
2023/12/30 12:35:30;;;;;;;2.42;1.58;;;8.10;99.90;;;;;;4992735;28;20038;-69
2023/12/30 12:37:55;;;;;;;1.35;0.93;;;8.10;99.90;;;;;;4992675;28;20053;-68
2023/12/30 12:40:21;;;;;;;1.20;0.98;;;8.20;99.90;;;;;;4992552;28;20051;-68
2023/12/30 12:42:47;;;;;;;3.33;1.98;;;8.20;99.90;;;;;;4992864;28;20037;-68
2023/12/30 12:45:12;;;;;;;1.85;1.00;;;8.20;99.90;;;;;;4992515;28;20041;-68
2023/12/30 12:47:39;;;;;;;1.73;1.27;;;8.20;99.90;;;;;;4992481;28;20034;-69
2023/12/30 12:50:06;;;;;;;2.25;1.17;;;8.30;99.90;;;;;;4992822;28;20323;-68
2023/12/30 12:52:31;;;;;;;3.38;1.73;;;8.30;99.90;;;;;;4992790;28;20043;-68
2023/12/30 12:54:57;;;;;;;3.47;1.45;;;8.30;99.90;;;;;;4992753;28;20482;-68